createdAt,value
2017-11-04T00:01:40.800Z,23.97
2017-11-04T00:04:09.276Z,21.60
2017-11-04T00:06:38.803Z,21.73
2017-11-04T00:09:07.917Z,22.27
2017-11-04T00:11:36.537Z,23.13
2017-11-04T00:14:05.888Z,22.00
2017-11-04T00:16:34.463Z,24.37
2017-11-04T00:19:03.675Z,23.73
2017-11-04T00:21:32.225Z,25.80
2017-11-04T00:24:00.848Z,25.07
2017-11-04T00:26:30.189Z,24.73
2017-11-04T00:28:58.662Z,23.40
2017-11-04T00:31:27.032Z,24.47
2017-11-04T00:33:55.314Z,30.60
2017-11-04T00:36:23.613Z,22.73
2017-11-04T00:38:51.941Z,22.00
2017-11-04T00:41:20.230Z,21.60
2017-11-04T00:43:48.532Z,26.13
2017-11-04T00:46:17.619Z,23.97
2017-11-04T00:48:45.923Z,25.00
2017-11-04T00:51:14.248Z,24.73
2017-11-04T00:53:42.561Z,24.30
2017-11-04T00:56:10.843Z,26.87
2017-11-04T00:58:39.132Z,24.97
2017-11-04T01:01:07.422Z,22.80
2017-11-04T01:03:35.718Z,21.77
2017-11-04T01:06:04.026Z,20.50
2017-11-04T01:08:32.320Z,21.80
2017-11-04T01:11:00.609Z,23.70
2017-11-04T01:13:28.898Z,20.97
2017-11-04T01:15:57.188Z,23.70
2017-11-04T01:18:25.507Z,23.97
2017-11-04T01:20:54.558Z,23.60
2017-11-04T01:23:22.857Z,22.63
2017-11-04T01:25:51.200Z,22.50
2017-11-04T01:28:20.259Z,20.47
2017-11-04T01:30:48.560Z,20.63
2017-11-04T01:33:16.875Z,19.90
2017-11-04T01:35:45.941Z,18.80
2017-11-04T01:38:14.230Z,23.10
2017-11-04T01:40:42.523Z,20.43
2017-11-04T01:43:11.583Z,18.80
2017-11-04T01:45:39.908Z,18.27
2017-11-04T01:48:08.199Z,20.90
2017-11-04T01:50:36.495Z,20.47
2017-11-04T01:53:04.779Z,19.47
2017-11-04T01:55:33.077Z,21.50
2017-11-04T01:58:01.388Z,20.20
2017-11-04T02:00:30.458Z,19.07
2017-11-04T02:02:58.739Z,18.90
2017-11-04T02:05:27.032Z,21.03
2017-11-04T02:07:55.331Z,21.03
2017-11-04T02:10:23.764Z,18.23
2017-11-04T02:12:52.814Z,18.07
2017-11-04T02:15:21.117Z,19.20
2017-11-04T02:17:49.418Z,19.33
2017-11-04T02:20:17.707Z,18.70
2017-11-04T02:22:46.008Z,20.20
2017-11-04T02:25:14.358Z,20.87
2017-11-04T02:27:42.652Z,20.50
2017-11-04T02:30:10.956Z,23.90
2017-11-04T02:32:39.251Z,20.03
2017-11-04T02:35:07.552Z,19.97
2017-11-04T02:37:35.863Z,21.27
2017-11-04T02:40:04.936Z,23.07
2017-11-04T02:42:33.256Z,22.80
2017-11-04T02:45:02.307Z,22.97
2017-11-04T02:47:30.599Z,21.00
2017-11-04T02:49:58.897Z,19.53
2017-11-04T02:52:27.215Z,18.77
2017-11-04T02:54:55.494Z,19.33
2017-11-04T02:57:23.783Z,20.93
2017-11-04T02:59:52.112Z,19.70
2017-11-04T03:02:20.401Z,21.60
2017-11-04T03:04:48.695Z,19.60
2017-11-04T03:07:16.991Z,21.63
2017-11-04T03:09:45.296Z,20.97
2017-11-04T03:12:13.582Z,26.10
2017-11-04T03:14:41.883Z,20.87
2017-11-04T03:17:10.169Z,24.47
2017-11-04T03:19:38.458Z,21.50
2017-11-04T03:22:06.744Z,20.60
2017-11-04T03:24:35.062Z,24.20
2017-11-04T03:27:03.370Z,23.03
2017-11-04T03:29:32.431Z,25.27
2017-11-04T03:32:00.715Z,23.87
2017-11-04T03:34:29.043Z,26.70
2017-11-04T03:36:57.342Z,27.47
2017-11-04T03:39:26.395Z,25.80
2017-11-04T03:41:54.724Z,25.53
2017-11-04T03:44:23.024Z,24.83
2017-11-04T03:46:52.076Z,24.37
2017-11-04T03:49:20.365Z,24.60
2017-11-04T03:51:48.668Z,22.80
2017-11-04T03:54:17.014Z,25.43
2017-11-04T03:56:45.336Z,28.97
2017-11-04T03:59:13.627Z,34.80
2017-11-04T04:01:41.955Z,25.10
2017-11-04T04:04:11.020Z,31.30
2017-11-04T04:06:39.332Z,25.43
2017-11-04T04:09:07.619Z,27.23
2017-11-04T04:11:35.922Z,21.90
2017-11-04T04:14:04.207Z,21.93
2017-11-04T04:16:32.504Z,24.13
2017-11-04T04:19:00.831Z,23.57
2017-11-04T04:21:29.132Z,23.40
2017-11-04T04:23:57.410Z,21.80
2017-11-04T04:26:25.690Z,20.27
2017-11-04T04:28:54.008Z,18.87
2017-11-04T04:31:22.300Z,17.50
2017-11-04T04:33:50.587Z,19.53
2017-11-04T04:36:18.932Z,18.33
2017-11-04T04:38:47.982Z,20.93
2017-11-04T04:41:16.288Z,20.03
2017-11-04T04:43:44.599Z,20.77
2017-11-04T04:46:12.886Z,21.50
2017-11-04T04:48:41.209Z,22.47
2017-11-04T04:51:09.500Z,26.10
2017-11-04T04:53:37.791Z,27.17
2017-11-04T04:56:06.085Z,31.10
2017-11-04T04:58:34.374Z,26.63
2017-11-04T05:01:02.650Z,26.10
2017-11-04T05:03:30.967Z,27.30
2017-11-04T05:05:59.259Z,30.67
2017-11-04T05:08:27.548Z,27.30
2017-11-04T05:10:55.843Z,39.87
2017-11-04T05:13:24.198Z,31.20
2017-11-04T05:15:52.485Z,27.10
2017-11-04T05:18:20.788Z,24.43
2017-11-04T05:20:49.082Z,24.47
2017-11-04T05:23:17.445Z,23.03
2017-11-04T05:25:46.498Z,24.53
2017-11-04T05:28:14.804Z,25.73
2017-11-04T05:30:43.120Z,28.77
2017-11-04T05:33:12.175Z,23.10
2017-11-04T05:35:40.454Z,23.80
2017-11-04T05:38:08.742Z,22.80
2017-11-04T05:40:37.034Z,24.53
2017-11-04T05:43:05.327Z,24.33
2017-11-04T05:45:33.619Z,24.70
2017-11-04T05:48:01.914Z,22.40
2017-11-04T05:50:30.226Z,22.37
2017-11-04T05:52:58.519Z,24.87
2017-11-04T05:55:26.809Z,25.23
2017-11-04T05:57:55.128Z,26.47
2017-11-04T06:00:24.183Z,33.80
2017-11-04T06:02:52.479Z,26.67
2017-11-04T06:05:20.774Z,25.63
2017-11-04T06:07:49.119Z,29.70
2017-11-04T06:10:17.420Z,27.00
2017-11-04T06:12:45.723Z,25.30
2017-11-04T06:15:14.054Z,28.33
2017-11-04T06:17:43.138Z,27.50
2017-11-04T06:20:11.452Z,27.13
2017-11-04T06:22:40.504Z,29.80
2017-11-04T06:25:08.809Z,32.37
2017-11-04T06:27:37.139Z,31.80
2017-11-04T06:30:06.211Z,30.87
2017-11-04T06:32:34.526Z,29.77
2017-11-04T06:35:02.843Z,31.57
2017-11-04T06:37:31.138Z,31.20
2017-11-04T06:39:59.455Z,33.97
2017-11-04T06:42:27.736Z,41.73
2017-11-04T06:44:56.079Z,37.20
2017-11-04T06:47:25.155Z,37.90
2017-11-04T06:49:53.464Z,44.27
2017-11-04T06:52:21.761Z,35.77
2017-11-04T06:54:50.829Z,36.10
2017-11-04T06:57:19.159Z,40.33
2017-11-04T06:59:47.487Z,36.33
2017-11-04T07:02:15.798Z,39.27
2017-11-04T07:04:44.097Z,41.90
2017-11-04T07:07:12.409Z,37.50
2017-11-04T07:09:40.707Z,36.57
2017-11-04T07:12:09.766Z,37.20
2017-11-04T07:14:38.201Z,36.63
2017-11-04T07:17:07.258Z,40.70
2017-11-04T07:19:35.571Z,45.20
2017-11-04T07:22:03.863Z,42.07
2017-11-04T07:24:32.159Z,41.50
2017-11-04T07:27:00.592Z,44.00
2017-11-04T07:29:28.878Z,40.90
2017-11-04T07:31:57.171Z,40.40
2017-11-04T07:34:25.468Z,40.30
2017-11-04T07:36:53.794Z,45.80
2017-11-04T07:39:22.105Z,51.17
2017-11-04T07:41:50.412Z,42.60
2017-11-04T07:44:19.482Z,47.13
2017-11-04T07:46:47.786Z,45.27
2017-11-04T07:49:16.110Z,46.07
2017-11-04T07:51:44.445Z,44.57
2017-11-04T07:54:12.750Z,45.40
2017-11-04T07:56:41.062Z,47.20
2017-11-04T07:59:10.131Z,41.97
2017-11-04T08:01:38.433Z,40.87
2017-11-04T08:04:06.740Z,46.30
2017-11-04T08:06:35.799Z,56.27
2017-11-04T08:09:04.095Z,65.03
2017-11-04T08:11:32.399Z,46.77
2017-11-04T08:14:00.704Z,45.87
2017-11-04T08:16:29.002Z,48.60
2017-11-04T08:18:58.090Z,51.10
2017-11-04T08:21:26.417Z,59.23
2017-11-04T08:23:55.503Z,56.10
2017-11-04T08:26:23.797Z,51.93
2017-11-04T08:28:52.167Z,45.90
2017-11-04T08:31:20.487Z,45.50
2017-11-04T08:33:48.855Z,54.40
2017-11-04T08:36:20.059Z,48.40
2017-11-04T08:38:48.362Z,54.27
2017-11-04T08:41:16.783Z,59.50
2017-11-04T08:43:45.095Z,57.60
2017-11-04T08:46:14.156Z,65.20
2017-11-04T08:48:42.462Z,61.87
2017-11-04T08:51:10.782Z,59.57
2017-11-04T08:53:39.886Z,51.40
2017-11-04T08:56:08.940Z,52.17
2017-11-04T08:58:37.247Z,60.37
2017-11-04T09:01:05.542Z,55.43
2017-11-04T09:03:33.860Z,44.20
2017-11-04T09:06:02.150Z,48.03
2017-11-04T09:08:31.233Z,50.50
2017-11-04T13:22:46.572Z,10.77
2017-11-04T13:25:14.930Z,11.20
2017-11-04T13:27:43.233Z,9.90
2017-11-04T13:30:11.563Z,9.87
2017-11-04T13:32:39.887Z,9.90
2017-11-04T13:35:08.211Z,9.87
2017-11-04T13:37:36.556Z,10.43
2017-11-04T13:40:04.871Z,11.10
2017-11-04T13:42:33.930Z,11.63
2017-11-04T13:45:02.263Z,12.73
2017-11-04T13:47:30.548Z,11.73
2017-11-04T13:49:59.611Z,13.70
2017-11-04T13:52:27.935Z,13.00
2017-11-04T13:54:56.306Z,12.70
2017-11-04T13:57:24.642Z,12.97
2017-11-04T13:59:53.781Z,13.50
2017-11-04T14:02:22.143Z,12.67
2017-11-04T14:04:50.542Z,14.73
2017-11-04T14:07:18.893Z,14.33
2017-11-04T14:09:47.261Z,14.17
2017-11-04T14:12:15.651Z,13.57
2017-11-04T14:14:44.021Z,13.60
2017-11-04T14:17:12.397Z,13.90
2017-11-04T14:19:40.738Z,12.47
2017-11-04T14:22:09.128Z,16.03
2017-11-04T14:24:37.500Z,16.10
2017-11-04T14:27:05.906Z,15.47
2017-11-04T14:29:34.234Z,15.37
2017-11-04T14:32:03.350Z,17.30
2017-11-04T14:34:31.680Z,20.20
2017-11-04T14:37:00.081Z,20.17
2017-11-04T14:39:28.469Z,18.83
2017-11-04T14:41:56.821Z,18.77
2017-11-04T14:44:25.202Z,20.20
2017-11-04T14:46:53.565Z,20.60
2017-11-04T14:49:21.945Z,21.10
2017-11-04T14:51:50.306Z,19.63
2017-11-04T14:54:18.711Z,18.23
2017-11-04T14:56:47.113Z,19.23
2017-11-04T14:59:15.459Z,18.53
2017-11-04T15:01:43.837Z,17.03
2017-11-04T15:04:12.199Z,17.50
2017-11-04T15:06:40.560Z,18.30
2017-11-04T15:09:08.952Z,18.93
2017-11-04T15:11:37.348Z,17.33
2017-11-04T15:14:05.729Z,16.37
2017-11-04T15:16:34.150Z,17.17
2017-11-04T15:19:02.498Z,17.20
2017-11-04T15:21:30.900Z,15.33
2017-11-04T15:23:59.224Z,16.60
2017-11-04T15:26:28.389Z,17.33
2017-11-04T15:28:56.718Z,17.13
2017-11-04T15:31:25.102Z,16.37
2017-11-04T15:33:53.469Z,15.10
2017-11-04T15:36:21.863Z,15.83
2017-11-04T15:38:50.210Z,16.27
2017-11-04T15:41:18.619Z,16.37
2017-11-04T15:43:47.019Z,15.97
2017-11-04T15:46:15.413Z,15.20
2017-11-04T15:48:43.750Z,17.33
2017-11-04T15:51:12.093Z,15.13
2017-11-04T15:53:41.203Z,13.60
2017-11-04T15:56:09.516Z,14.93
2017-11-04T15:58:38.000Z,15.10
2017-11-04T16:01:06.335Z,15.30
2017-11-04T16:03:35.395Z,16.90
2017-11-04T16:06:03.728Z,15.10
2017-11-04T16:08:32.001Z,16.43
2017-11-04T16:11:00.337Z,17.47
2017-11-04T16:13:28.639Z,18.47
2017-11-04T16:15:57.068Z,19.30
2017-11-04T16:18:25.370Z,18.70
2017-11-04T16:20:53.674Z,18.60
2017-11-04T16:23:22.751Z,18.87
2017-11-04T16:25:51.044Z,18.93
2017-11-04T16:28:19.374Z,19.77
2017-11-04T16:30:47.937Z,20.20
2017-11-04T16:33:16.229Z,19.40
2017-11-04T16:35:45.310Z,21.17
2017-11-04T16:38:13.624Z,17.17
2017-11-04T16:40:41.946Z,17.57
2017-11-04T16:43:10.264Z,18.20
2017-11-04T16:45:38.545Z,17.97
2017-11-04T16:48:06.862Z,17.03
2017-11-04T16:50:35.154Z,18.67
2017-11-04T16:53:03.452Z,18.70
2017-11-04T16:55:31.741Z,18.40
2017-11-04T16:58:00.030Z,19.13
2017-11-04T17:00:28.348Z,19.80
2017-11-04T17:02:57.481Z,19.30
2017-11-04T17:05:25.803Z,19.13
2017-11-04T17:07:54.143Z,20.50
2017-11-04T17:10:22.457Z,18.87
2017-11-04T17:12:50.753Z,20.37
2017-11-04T17:15:19.054Z,19.13
2017-11-04T17:17:48.162Z,19.40
2017-11-04T17:20:16.474Z,19.13
2017-11-04T17:22:44.801Z,20.33
2017-11-04T17:25:13.095Z,21.63
2017-11-04T17:27:41.418Z,21.50
2017-11-04T17:30:09.715Z,21.30
2017-11-04T17:32:38.007Z,20.83
2017-11-04T17:35:06.334Z,21.00
2017-11-04T17:37:35.410Z,22.67
2017-11-04T17:40:04.624Z,19.80
2017-11-04T17:42:32.947Z,21.17
2017-11-04T17:45:01.230Z,21.80
2017-11-04T17:47:29.591Z,21.63
2017-11-04T17:49:57.941Z,21.73
2017-11-04T17:52:26.254Z,22.67
2017-11-04T17:54:54.606Z,21.80
2017-11-04T17:57:22.920Z,22.90
2017-11-04T17:59:51.232Z,21.47
2017-11-04T18:02:19.543Z,21.30
2017-11-04T18:04:48.639Z,20.07
2017-11-04T18:07:16.957Z,22.80
2017-11-04T18:09:46.028Z,23.20
2017-11-04T18:12:14.332Z,21.03
2017-11-04T18:14:43.396Z,22.37
2017-11-04T18:17:11.698Z,20.77
2017-11-04T18:19:40.004Z,21.47
2017-11-04T18:22:08.337Z,21.13
2017-11-04T18:24:36.635Z,24.60
2017-11-04T18:27:04.952Z,22.80
2017-11-04T18:29:33.259Z,24.03
2017-11-04T18:32:01.618Z,24.20
2017-11-04T18:34:30.006Z,23.47
2017-11-04T18:36:58.295Z,22.33
2017-11-04T18:39:26.585Z,22.20
2017-11-04T18:41:54.884Z,22.47
2017-11-04T18:44:23.192Z,24.97
2017-11-04T18:46:51.486Z,25.00
2017-11-04T18:49:19.809Z,22.70
2017-11-04T18:51:48.119Z,22.33
2017-11-04T18:54:16.453Z,24.53
2017-11-04T18:56:44.747Z,23.00
2017-11-04T18:59:13.831Z,25.90
2017-11-04T19:01:42.144Z,26.00
2017-11-04T19:04:10.445Z,27.27
2017-11-04T19:06:39.514Z,26.77
2017-11-04T19:09:07.834Z,24.30
2017-11-04T19:11:36.906Z,21.10
2017-11-04T19:14:05.229Z,23.70
2017-11-04T19:16:33.558Z,23.03
2017-11-04T19:19:01.885Z,22.80
2017-11-04T19:21:30.316Z,22.70
2017-11-04T19:23:59.376Z,23.83
2017-11-04T19:26:27.718Z,23.40
2017-11-04T19:28:56.015Z,25.77
2017-11-04T19:31:24.321Z,23.87
2017-11-04T19:33:52.614Z,22.33
2017-11-04T19:36:20.915Z,22.23
2017-11-04T19:38:49.307Z,22.67
2017-11-04T19:41:17.624Z,21.00
2017-11-04T19:43:45.966Z,19.60
2017-11-04T19:46:14.262Z,21.07
2017-11-04T19:48:42.614Z,21.73
2017-11-04T19:51:10.918Z,20.30
2017-11-04T19:53:39.222Z,20.40
2017-11-04T19:56:07.554Z,20.00
2017-11-04T19:58:35.901Z,18.80
2017-11-04T20:01:04.201Z,19.20
2017-11-04T20:03:32.544Z,18.87
2017-11-04T20:06:01.632Z,20.70
2017-11-04T20:08:29.964Z,19.57
2017-11-04T20:10:58.510Z,18.73
2017-11-04T20:13:26.824Z,19.20
2017-11-04T20:15:55.138Z,17.60
2017-11-04T20:18:23.438Z,19.80
2017-11-04T20:20:51.772Z,18.47
2017-11-04T20:23:20.117Z,21.90
2017-11-04T20:25:48.417Z,19.23
2017-11-04T20:28:16.731Z,20.73
2017-11-04T20:30:45.037Z,21.37
2017-11-04T20:33:13.372Z,19.93
2017-11-04T20:35:41.706Z,19.77
2017-11-04T20:38:10.002Z,18.40
2017-11-04T20:40:38.332Z,18.00
2017-11-04T20:43:06.626Z,16.20
2017-11-04T20:45:35.129Z,15.40
2017-11-04T20:48:03.494Z,16.03
2017-11-04T20:50:31.842Z,17.63
2017-11-04T20:53:01.222Z,16.70
2017-11-04T20:55:29.605Z,16.37
2017-11-04T20:57:57.995Z,19.17
2017-11-04T21:00:27.129Z,19.20
2017-11-04T21:02:55.587Z,17.37
2017-11-04T21:05:23.971Z,18.00
2017-11-04T21:07:52.305Z,15.33
2017-11-04T21:10:20.667Z,17.53
2017-11-04T21:12:49.126Z,15.73
2017-11-04T21:15:18.427Z,16.60
2017-11-04T21:17:47.640Z,13.00
2017-11-04T21:20:15.959Z,10.40
2017-11-04T21:22:44.281Z,10.93
2017-11-04T21:25:13.416Z,11.30
2017-11-04T21:27:41.742Z,10.70
2017-11-04T21:30:10.151Z,10.43
2017-11-04T21:32:38.497Z,9.60
2017-11-04T21:35:06.820Z,9.90
2017-11-04T21:37:35.211Z,10.03
2017-11-04T21:40:03.792Z,9.70
2017-11-04T21:42:32.262Z,10.20
2017-11-04T21:45:00.607Z,10.00
2017-11-04T21:47:29.693Z,9.43
2017-11-04T21:49:58.113Z,10.20
2017-11-04T21:52:26.444Z,10.90
2017-11-04T21:54:54.758Z,11.13
2017-11-04T21:57:23.092Z,9.80
2017-11-04T21:59:51.439Z,11.53
2017-11-04T22:02:20.573Z,11.00
2017-11-04T22:04:49.728Z,10.43
2017-11-04T22:07:18.098Z,10.37
2017-11-04T22:09:46.488Z,9.93
2017-11-04T22:12:14.898Z,9.90
2017-11-04T22:14:43.215Z,9.00
2017-11-04T22:17:12.277Z,9.53
2017-11-04T22:19:40.608Z,10.00
2017-11-04T22:22:08.906Z,9.10
2017-11-04T22:24:37.281Z,10.10
2017-11-04T22:27:06.392Z,9.87
2017-11-04T22:29:35.491Z,9.23
2017-11-04T22:32:04.039Z,9.00
2017-11-04T22:34:32.381Z,10.43
2017-11-04T22:37:01.440Z,9.40
2017-11-04T22:39:29.735Z,10.43
2017-11-04T22:41:58.051Z,9.63
2017-11-04T22:44:26.349Z,10.63
2017-11-04T22:46:54.662Z,9.80
2017-11-04T22:49:22.975Z,10.93
2017-11-04T22:51:51.275Z,9.83
2017-11-04T22:54:19.572Z,10.50
2017-11-04T22:56:47.916Z,10.00
2017-11-04T22:59:16.285Z,10.83
2017-11-04T23:01:45.368Z,10.60
2017-11-04T23:04:13.792Z,9.80
2017-11-04T23:06:42.847Z,10.03
2017-11-04T23:09:11.156Z,10.20
2017-11-04T23:11:39.482Z,9.33
2017-11-04T23:14:08.536Z,9.80
2017-11-04T23:16:36.835Z,10.40
2017-11-04T23:19:05.769Z,10.10
2017-11-04T23:21:34.930Z,10.80
2017-11-04T23:24:03.267Z,11.27
2017-11-04T23:26:32.417Z,10.17
2017-11-04T23:29:00.808Z,11.83
2017-11-04T23:31:29.140Z,11.33
2017-11-04T23:33:57.504Z,10.03
2017-11-04T23:36:25.871Z,10.03
2017-11-04T23:38:54.244Z,10.20
2017-11-04T23:41:22.637Z,9.50
2017-11-04T23:43:51.766Z,9.80
2017-11-04T23:46:20.887Z,9.70
2017-11-04T23:48:49.286Z,10.10
2017-11-04T23:51:17.664Z,11.13
2017-11-04T23:53:45.999Z,8.70
2017-11-04T23:56:15.182Z,8.97
2017-11-04T23:58:44.357Z,10.33
